Time;durP1;ratioP1;P1;durP2;ratioP2;P2;SDS_P1;SDS_P2;PMS_P1;PMS_P2;Temp;Humidity;BMP_temperature;BMP_pressure;BME280_temperature;BME280_humidity;BME280_pressure;Samples;Min_cycle;Max_cycle;Signal;HPM_P1;HPM_P2
2022/07/13 00:00:26;;;;;;;;;;;;;;;14.62;100.00;98869.97;1805150;79;21031;-63
2022/07/13 00:02:53;;;;;;;1.15;0.40;;;;;;;14.60;100.00;98866.72;1798373;78;20163;-63
2022/07/13 00:05:20;;;;;;;;;;;;;;;14.53;100.00;98868.56;1788722;79;21034;-62
2022/07/13 00:07:46;;;;;;;3.15;0.40;;;;;;;14.57;100.00;98863.25;1835512;78;20457;-63
2022/07/13 00:10:13;;;;;;;2.35;0.50;;;;;;;14.56;100.00;98856.97;1817364;78;21054;-63
2022/07/13 00:12:39;;;;;;;3.10;0.50;;;;;;;14.56;100.00;98857.55;1777323;79;21495;-62
2022/07/13 00:15:07;;;;;;;1.05;0.40;;;;;;;14.55;100.00;98849.09;1814991;78;20990;-63
2022/07/13 00:17:34;;;;;;;3.10;0.47;;;;;;;14.58;100.00;98847.08;1807992;78;20974;-63
2022/07/13 00:20:00;;;;;;;;;;;;;;;14.60;100.00;98840.70;1804977;78;21051;-63
2022/07/13 00:22:26;;;;;;;1.05;0.40;;;;;;;14.62;100.00;98842.58;1770867;80;20153;-63
2022/07/13 00:24:53;;;;;;;1.12;0.30;;;;;;;14.52;100.00;98837.41;1834166;77;21044;-63
2022/07/13 00:27:19;;;;;;;1.10;0.40;;;;;;;14.51;100.00;98832.48;1801006;78;21005;-63
2022/07/13 00:29:46;;;;;;;2.55;0.30;;;;;;;14.55;100.00;98824.44;1812272;78;21026;-63
2022/07/13 00:32:13;;;;;;;1.67;0.40;;;;;;;14.57;100.00;98818.06;1826159;77;21048;-63
2022/07/13 00:34:40;;;;;;;3.08;0.37;;;;;;;14.55;100.00;98818.41;1801344;78;21568;-63
2022/07/13 00:37:06;;;;;;;1.35;0.60;;;;;;;14.53;100.00;98817.09;1803715;78;21087;-64
2022/07/13 00:39:34;;;;;;;2.27;0.30;;;;;;;14.57;100.00;98819.44;1815491;78;21582;-64
2022/07/13 00:42:00;;;;;;;3.40;0.60;;;;;;;14.58;100.00;98812.84;1815719;78;21084;-64
2022/07/13 00:44:27;;;;;;;3.75;0.35;;;;;;;14.60;100.00;98807.84;1804881;78;21678;-63
2022/07/13 00:46:53;;;;;;;;;;;;;;;14.60;100.00;98805.09;1811615;78;21081;-64
2022/07/13 00:49:22;;;;;;;1.05;0.40;;;;;;;14.55;100.00;98799.23;1819649;78;20101;-64
2022/07/13 00:51:49;;;;;;;2.15;0.50;;;;;;;14.54;100.00;98794.06;1801836;78;21039;-63
2022/07/13 00:54:18;;;;;;;1.25;0.40;;;;;;;14.58;100.00;98790.93;1801731;78;21140;-63
2022/07/13 00:56:47;;;;;;;3.70;0.42;;;;;;;14.61;100.00;98783.44;1781906;78;21029;-63
2022/07/13 00:59:14;;;;;;;1.65;0.50;;;;;;;14.60;100.00;98788.11;1809519;77;21522;-63
2022/07/13 01:01:40;;;;;;;;;;;;;;;14.63;100.00;98781.20;1818286;78;21050;-63
2022/07/13 01:04:06;;;;;;;1.72;0.50;;;;;;;14.68;100.00;98775.55;1826491;77;20125;-63
2022/07/13 01:06:33;;;;;;;2.22;0.62;;;;;;;14.67;100.00;98776.11;1803092;78;21054;-63
2022/07/13 01:09:01;;;;;;;1.32;0.65;;;;;;;14.64;100.00;98778.12;1809740;78;21047;-63
2022/07/13 01:11:29;;;;;;;3.27;0.70;;;;;;;14.66;100.00;98773.70;1814936;78;21000;-64
2022/07/13 01:13:55;;;;;;;1.57;0.53;;;;;;;14.72;100.00;98779.26;1817700;78;21110;-64
2022/07/13 01:16:24;;;;;;;2.47;0.50;;;;;;;14.73;100.00;98774.84;1814608;77;20996;-62
2022/07/13 01:18:50;;;;;;;;;;;;;;;14.68;100.00;98775.55;1814790;77;21487;-62
2022/07/13 01:21:16;;;;;;;1.60;0.60;;;;;;;14.63;100.00;98786.09;1806878;78;20428;-62
2022/07/13 01:23:43;;;;;;;2.52;0.40;;;;;;;14.56;100.00;98781.66;1773078;78;21521;-61
2022/07/13 01:26:13;;;;;;;1.17;0.40;;;;;;;14.52;100.00;98777.16;1813529;78;21085;-61
2022/07/13 01:28:39;;;;;;;2.42;0.50;;;;;;;14.49;100.00;98785.43;1794710;78;21118;-62
2022/07/13 01:31:06;;;;;;;2.40;0.50;;;;;;;14.44;100.00;98772.72;1793349;78;21076;-61
2022/07/13 01:33:33;;;;;;;;;;;;;;;14.34;100.00;98785.35;1802065;78;21070;-61
2022/07/13 01:36:01;;;;;;;4.25;0.40;;;;;;;14.27;100.00;98789.64;1806600;78;20133;-62
2022/07/13 01:38:28;;;;;;;1.45;0.40;;;;;;;14.19;100.00;98786.31;1802876;78;21990;-61
2022/07/13 01:40:55;;;;;;;1.20;0.50;;;;;;;14.13;100.00;98781.56;1798012;78;21042;-61
2022/07/13 01:43:28;;;;;;;1.55;0.42;;;;;;;14.07;100.00;98781.45;1789368;78;21118;-61
2022/07/13 01:45:55;;;;;;;2.35;0.50;;;;;;;14.02;100.00;98773.95;1799422;78;21501;-61
2022/07/13 01:48:21;;;;;;;;;;;;;;;13.96;100.00;98780.12;1780261;78;21092;-62
2022/07/13 01:50:49;;;;;;;1.57;0.62;;;;;;;13.91;100.00;98775.62;1793717;78;20547;-62
2022/07/13 01:53:16;;;;;;;1.90;0.45;;;;;;;13.83;100.00;98772.28;1799715;78;21071;-62
2022/07/13 01:55:42;;;;;;;2.50;0.50;;;;;;;13.80;100.00;98768.81;1767240;80;21498;-62
2022/07/13 01:58:09;;;;;;;4.45;0.72;;;;;;;13.79;100.00;98770.48;1787190;80;21057;-62
2022/07/13 02:00:35;;;;;;;0.88;0.40;;;;;;;13.71;100.00;98763.07;1797015;78;21015;-62
2022/07/13 02:03:03;;;;;;;1.00;0.50;;;;;;;13.72;100.00;98764.11;1797064;78;21027;-62
2022/07/13 02:05:32;;;;;;;2.12;0.40;;;;;;;13.70;100.00;98754.61;1735114;81;21039;-62
2022/07/13 02:07:59;;;;;;;2.75;0.50;;;;;;;13.72;100.00;98755.09;1778643;79;21089;-62
2022/07/13 02:10:37;;;;;;;2.37;0.40;;;;;;;13.73;100.00;98752.61;1746919;80;21533;-63
2022/07/13 02:13:08;;;;;;;3.35;0.53;;;;;;;13.74;100.00;98751.49;1763867;80;21024;-63
2022/07/13 02:15:35;;;;;;;1.57;0.47;;;;;;;13.73;100.00;98749.31;1771695;79;21058;-63
2022/07/13 02:18:05;;;;;;;1.85;0.60;;;;;;;13.73;100.00;98745.21;1772294;80;21011;-62
2022/07/13 02:20:34;;;;;;;0.90;0.30;;;;;;;13.73;100.00;98746.58;1782003;79;21573;-62
2022/07/13 02:23:01;;;;;;;1.50;0.37;;;;;;;13.73;100.00;98734.27;1763146;79;20947;-62
2022/07/13 02:25:27;;;;;;;2.37;0.50;;;;;;;13.73;100.00;98741.11;1794332;79;21529;-63
2022/07/13 02:27:54;;;;;;;2.83;0.60;;;;;;;13.73;100.00;98743.03;1786906;79;20995;-62
2022/07/13 02:30:20;;;;;;;1.10;0.62;;;;;;;13.72;100.00;98732.66;1791815;79;21490;-62
2022/07/13 02:32:48;;;;;;;1.70;0.50;;;;;;;13.71;100.00;98735.72;1766334;79;20966;-62
2022/07/13 02:35:15;;;;;;;2.65;0.40;;;;;;;13.69;100.00;98728.37;1773070;79;21715;-62
2022/07/13 02:37:43;;;;;;;0.55;0.37;;;;;;;13.69;100.00;98725.64;1783056;79;20995;-63
2022/07/13 02:40:12;;;;;;;3.25;0.50;;;;;;;13.69;100.00;98720.98;1791800;79;21605;-62
2022/07/13 02:42:39;;;;;;;2.45;0.40;;;;;;;13.67;100.00;98715.59;1772178;79;21037;-62
2022/07/13 02:45:07;;;;;;;1.32;0.40;;;;;;;13.65;100.00;98722.73;1776044;79;20994;-63
2022/07/13 02:47:34;;;;;;;1.15;0.50;;;;;;;13.65;100.00;98716.45;1770414;79;21007;-62
2022/07/13 02:50:02;;;;;;;1.52;0.30;;;;;;;13.63;100.00;98715.42;1773369;80;21097;-60
2022/07/13 02:52:29;;;;;;;1.67;0.50;;;;;;;13.65;100.00;98715.89;1734283;80;21030;-61
2022/07/13 02:54:55;;;;;;;1.40;0.40;;;;;;;13.62;100.00;98712.43;1788332;78;21117;-61
2022/07/13 02:57:22;;;;;;;1.00;0.30;;;;;;;13.64;100.00;98718.96;1729759;80;21549;-62
2022/07/13 02:59:52;;;;;;;1.10;0.30;;;;;;;13.64;100.00;98710.17;1791094;78;21560;-62
2022/07/13 03:02:18;;;;;;;1.20;0.40;;;;;;;13.64;100.00;98700.60;1776646;80;21368;-62
2022/07/13 03:04:46;;;;;;;1.02;0.35;;;;;;;13.66;100.00;98704.41;1784048;79;21867;-62
2022/07/13 03:07:12;;;;;;;0.90;0.40;;;;;;;13.67;100.00;98700.55;1766770;79;21034;-62
2022/07/13 03:09:39;;;;;;;1.20;0.33;;;;;;;13.68;100.00;98700.77;1768295;80;21093;-62
2022/07/13 03:12:08;;;;;;;1.30;0.42;;;;;;;13.69;100.00;98712.78;1725173;80;21078;-63
2022/07/13 03:14:34;;;;;;;2.22;0.30;;;;;;;13.69;100.00;98701.84;1801565;78;21110;-63
2022/07/13 03:17:00;;;;;;;;;;;;;;;13.71;100.00;98700.17;1795026;78;21046;-62
2022/07/13 03:19:27;;;;;;;1.65;0.40;;;;;;;13.71;100.00;98705.05;1763195;80;20114;-62
2022/07/13 03:21:54;;;;;;;2.62;0.60;;;;;;;13.67;100.00;98684.95;1797146;78;21065;-62
2022/07/13 03:24:21;;;;;;;1.90;0.50;;;;;;;13.68;100.00;98687.10;1789991;78;21669;-63
2022/07/13 03:26:47;;;;;;;0.60;0.40;;;;;;;13.69;100.00;98699.10;1831986;76;21006;-62
2022/07/13 03:29:14;;;;;;;0.65;0.30;;;;;;;13.72;100.00;98698.47;1787485;80;21144;-62
2022/07/13 03:31:42;;;;;;;2.17;0.37;;;;;;;13.74;100.00;98689.95;1791546;78;21037;-62
2022/07/13 03:34:09;;;;;;;1.82;0.40;;;;;;;13.75;100.00;98688.25;1829859;77;21059;-62
2022/07/13 03:36:37;;;;;;;2.10;0.30;;;;;;;13.76;100.00;98676.75;1825353;77;21055;-62
2022/07/13 03:39:04;;;;;;;1.10;0.40;;;;;;;13.77;100.00;98684.66;1822462;77;21118;-62
2022/07/13 03:41:31;;;;;;;2.15;0.62;;;;;;;13.79;100.00;98685.69;1834760;77;21050;-61
2022/07/13 03:43:58;;;;;;;0.82;0.40;;;;;;;13.82;100.00;98685.05;1850080;76;21075;-61
2022/07/13 03:46:24;;;;;;;3.10;0.50;;;;;;;13.83;100.00;98686.67;1841511;76;21608;-62
2022/07/13 03:48:51;;;;;;;1.85;0.30;;;;;;;13.84;100.00;98682.26;1832224;77;21770;-61
2022/07/13 03:51:18;;;;;;;2.98;0.40;;;;;;;13.86;100.00;98677.82;1840017;76;21637;-62
2022/07/13 03:53:45;;;;;;;0.65;0.30;;;;;;;13.86;100.00;98677.27;1840728;77;20998;-62
2022/07/13 03:56:12;;;;;;;0.60;0.40;;;;;;;13.88;100.00;98683.23;1841051;76;21058;-62
2022/07/13 03:58:38;;;;;;;;;;;;;;;13.88;100.00;98679.14;1840798;77;21096;-61
2022/07/13 04:01:05;;;;;;;1.55;0.50;;;;;;;13.86;100.00;98670.98;1832664;76;20136;-62
2022/07/13 04:03:32;;;;;;;1.72;0.40;;;;;;;13.81;100.00;98667.05;1830072;77;21047;-62
2022/07/13 04:06:00;;;;;;;1.60;0.50;;;;;;;13.80;100.00;98679.91;1798595;77;21489;-61
2022/07/13 04:08:27;;;;;;;1.07;0.53;;;;;;;13.83;100.00;98666.16;1838756;76;21571;-63
2022/07/13 04:10:54;;;;;;;3.10;0.50;;;;;;;13.85;100.00;98673.50;1830438;77;21026;-62
2022/07/13 04:13:20;;;;;;;1.67;0.40;;;;;;;13.87;100.00;98658.92;1832675;76;21067;-61
2022/07/13 04:15:47;;;;;;;0.70;0.37;;;;;;;13.90;100.00;98660.46;1822496;77;21034;-62
2022/07/13 04:18:15;;;;;;;1.77;0.40;;;;;;;13.93;100.00;98661.74;1823426;77;21083;-62
2022/07/13 04:20:43;;;;;;;0.85;0.30;;;;;;;13.92;100.00;98660.94;1830275;77;21034;-62
2022/07/13 04:23:10;;;;;;;1.87;0.40;;;;;;;13.93;100.00;98658.45;1836238;77;21056;-62
2022/07/13 04:25:37;;;;;;;1.17;0.42;;;;;;;13.95;100.00;98663.05;1834150;77;21085;-61
2022/07/13 04:28:04;;;;;;;1.10;0.55;;;;;;;13.98;100.00;98658.06;1838288;76;21534;-62
2022/07/13 04:30:32;;;;;;;2.25;0.53;;;;;;;14.01;100.00;98644.55;1859879;77;21624;-62
2022/07/13 04:32:59;;;;;;;2.30;0.75;;;;;;;14.01;100.00;98654.12;1839181;76;21050;-62
2022/07/13 04:35:26;;;;;;;2.67;0.75;;;;;;;14.03;100.00;98650.48;1832066;76;21458;-62
2022/07/13 04:37:53;;;;;;;3.10;0.50;;;;;;;14.08;100.00;98644.87;1839049;76;21026;-62
2022/07/13 04:40:19;;;;;;;;;;;;;;;14.10;100.00;98649.45;1832666;76;20918;-62
2022/07/13 04:42:46;;;;;;;0.80;0.40;;;;;;;14.10;100.00;98650.03;1836442;76;20128;-63
2022/07/13 04:45:13;;;;;;;1.12;0.40;;;;;;;14.05;100.00;98649.63;1826423;76;21030;-62
2022/07/13 04:47:41;;;;;;;2.15;0.40;;;;;;;14.03;100.00;98645.61;1839495;76;21581;-62
2022/07/13 04:50:08;;;;;;;1.42;0.40;;;;;;;14.04;100.00;98642.53;1847362;76;21540;-61
2022/07/13 04:52:34;;;;;;;1.17;0.50;;;;;;;14.03;100.00;98645.61;1843967;76;21002;-61
2022/07/13 04:55:01;;;;;;;2.05;0.57;;;;;;;14.04;100.00;98637.61;1833243;76;21021;-65
2022/07/13 04:57:29;;;;;;;3.12;0.40;;;;;;;14.05;100.00;98646.89;1815480;77;20999;-62
2022/07/13 04:59:57;;;;;;;1.75;0.40;;;;;;;14.07;100.00;98644.63;1813368;77;21062;-62
2022/07/13 05:02:24;;;;;;;2.12;0.40;;;;;;;14.06;100.00;98649.88;1819906;77;21581;-62
2022/07/13 05:04:50;;;;;;;;;;;;;;;14.06;100.00;98649.88;1808648;78;21066;-62
2022/07/13 05:07:16;;;;;;;0.65;0.40;;;;;;;14.07;100.00;98650.09;1818986;79;20454;-61
2022/07/13 05:09:45;;;;;;;0.95;0.30;;;;;;;14.04;100.00;98645.27;1818884;77;21008;-61
2022/07/13 05:12:13;;;;;;;1.35;0.40;;;;;;;14.07;100.00;98643.25;1818411;77;21012;-62
2022/07/13 05:14:40;;;;;;;1.07;0.30;;;;;;;14.10;100.00;98646.71;1804342;78;21050;-62
2022/07/13 05:17:08;;;;;;;1.55;0.37;;;;;;;14.12;100.00;98641.73;1804139;79;21448;-61
2022/07/13 05:19:36;;;;;;;0.95;0.50;;;;;;;14.13;100.00;98641.99;1800426;78;21138;-61
2022/07/13 05:22:03;;;;;;;0.98;0.30;;;;;;;14.16;100.00;98648.19;1798251;77;21065;-64
2022/07/13 05:26:25;;;;;;;1.60;0.50;;;;;;;14.25;100.00;98628.45;1778648;79;22859;-63
2022/07/13 05:28:52;;;;;;;1.45;0.50;;;;;;;14.20;100.00;98638.77;1734638;80;21047;-62
2022/07/13 05:31:19;;;;;;;0.72;0.30;;;;;;;14.16;100.00;98641.34;1686777;83;21090;-62
2022/07/13 05:33:46;;;;;;;1.05;0.30;;;;;;;14.11;100.00;98625.62;1687290;83;21080;-63
2022/07/13 05:36:14;;;;;;;2.05;0.55;;;;;;;14.08;100.00;98639.95;1688059;83;21032;-62
2022/07/13 05:38:42;;;;;;;0.78;0.30;;;;;;;14.03;100.00;98638.17;1683751;83;21064;-62
2022/07/13 05:41:09;;;;;;;0.90;0.33;;;;;;;14.02;100.00;98630.30;1703592;82;21061;-63
2022/07/13 05:43:38;;;;;;;0.70;0.30;;;;;;;13.99;100.00;98643.27;1693835;84;21071;-62
2022/07/13 05:46:05;;;;;;;2.17;0.50;;;;;;;13.98;100.00;98636.98;1675665;84;21533;-63
2022/07/13 05:48:31;;;;;;;;;;;;;;;13.97;100.00;98640.83;1694166;84;21122;-64
2022/07/13 05:50:58;;;;;;;1.65;0.47;;;;;;;13.96;100.00;98641.39;1706733;82;20456;-62
2022/07/13 05:53:25;;;;;;;2.10;0.57;;;;;;;13.90;100.00;98637.77;1690910;82;21069;-64
2022/07/13 05:55:52;;;;;;;1.70;0.50;;;;;;;13.88;100.00;98644.13;1651931;83;21069;-65
2022/07/13 05:58:18;;;;;;;2.00;0.75;;;;;;;13.88;100.00;98648.23;1687218;82;21118;-63
2022/07/13 06:00:45;;;;;;;;;;;;;;;13.88;100.00;98640.84;1696798;83;21488;-63
2022/07/13 06:03:11;;;;;;;4.00;0.60;;;;;;;13.92;100.00;98640.41;1693291;82;20215;-62
2022/07/13 06:05:37;;;;;;;2.60;0.30;;;;;;;13.90;100.00;98644.61;1701339;84;21674;-62
2022/07/13 06:08:04;;;;;;;1.27;0.30;;;;;;;13.91;100.00;98637.45;1699348;84;21055;-63
2022/07/13 06:10:31;;;;;;;0.57;0.37;;;;;;;13.92;100.00;98639.05;1671564;82;21062;-64
2022/07/13 06:12:58;;;;;;;0.70;0.30;;;;;;;13.94;100.00;98640.92;1693521;82;21130;-63
2022/07/13 06:15:25;;;;;;;0.68;0.40;;;;;;;13.98;100.00;98634.80;1695489;84;21557;-62
2022/07/13 06:17:51;;;;;;;;;;;;;;;14.00;100.00;98640.75;1700159;84;21086;-62
2022/07/13 06:20:18;;;;;;;1.10;0.45;;;;;;;14.02;100.00;98646.16;1697270;82;20143;-61
2022/07/13 06:23:09;;;;;;;0.70;0.30;;;;;;;14.02;100.00;98642.62;1691084;82;21066;-62
2022/07/13 06:25:13;;;;;;;1.67;0.50;;;;;;;14.05;100.00;98638.67;1682172;83;21621;-61
2022/07/13 06:27:40;;;;;;;0.68;0.30;;;;;;;14.09;100.00;98641.58;1667167;85;21477;-63
2022/07/13 06:30:09;;;;;;;0.60;0.30;;;;;;;14.09;100.00;98642.39;1677282;83;21131;-62
2022/07/13 06:32:37;;;;;;;0.75;0.30;;;;;;;14.13;100.00;98646.66;1668502;85;21051;-63
2022/07/13 06:35:06;;;;;;;1.12;0.50;;;;;;;14.18;100.00;98636.90;1679368;83;21171;-65
2022/07/13 06:37:32;;;;;;;0.47;0.30;;;;;;;14.19;100.00;98635.22;1672438;85;21011;-64
2022/07/13 06:39:58;;;;;;;;;;;;;;;14.22;100.00;98639.23;1677631;85;21112;-62
2022/07/13 06:42:25;;;;;;;0.95;0.30;;;;;;;14.27;100.00;98639.09;1665380;85;20157;-63
2022/07/13 06:44:51;;;;;;;1.00;0.40;;;;;;;14.27;100.00;98646.75;1683329;83;21172;-64
2022/07/13 06:47:18;;;;;;;0.45;0.30;;;;;;;14.31;100.00;98634.59;1741712;81;21031;-63
2022/07/13 06:49:45;;;;;;;1.35;0.40;;;;;;;14.34;100.00;98634.78;1737586;81;21087;-63
2022/07/13 06:52:12;;;;;;;1.85;0.40;;;;;;;14.35;100.00;98639.10;1725094;82;21043;-64
2022/07/13 06:54:40;;;;;;;1.50;0.30;;;;;;;14.37;100.00;98636.06;1729114;82;21590;-63
2022/07/13 06:57:06;;;;;;;0.40;0.30;;;;;;;14.38;100.00;98641.19;1742872;81;20972;-63
2022/07/13 06:59:33;;;;;;;2.00;0.30;;;;;;;14.39;100.00;98637.89;1723069;81;21068;-62
2022/07/13 07:02:00;;;;;;;;;;;;;;;14.41;100.00;98633.73;1724601;82;20948;-62
2022/07/13 07:04:27;;;;;;;1.52;0.40;;;;;;;14.42;100.00;98638.05;1725745;82;20106;-63
2022/07/13 07:06:54;;;;;;;0.68;0.30;;;;;;;14.39;100.00;98647.47;1729404;81;21445;-62
2022/07/13 07:09:20;;;;;;;0.78;0.30;;;;;;;14.42;100.00;98634.50;1738656;81;21427;-63
2022/07/13 07:11:46;;;;;;;;;;;;;;;14.41;100.00;98647.42;1709669;82;20976;-62
2022/07/13 07:14:13;;;;;;;0.60;0.30;;;;;;;14.42;100.00;98645.45;1719259;82;20143;-61
2022/07/13 07:16:42;;;;;;;2.08;0.20;;;;;;;14.37;100.00;98649.19;1733504;82;21280;-62
2022/07/13 07:19:10;;;;;;;0.68;0.30;;;;;;;14.36;100.00;98640.72;1721294;81;21118;-62
2022/07/13 07:21:40;;;;;;;0.60;0.20;;;;;;;14.33;100.00;98641.34;1720073;82;21040;-62
2022/07/13 07:24:07;;;;;;;0.70;0.25;;;;;;;14.32;100.00;98642.46;1732950;82;21093;-61
2022/07/13 07:26:37;;;;;;;0.72;0.20;;;;;;;14.32;100.00;98641.65;1729744;81;21067;-62
2022/07/13 07:29:03;;;;;;;0.90;0.20;;;;;;;14.34;100.00;98640.25;1732596;81;21130;-61
2022/07/13 07:31:30;;;;;;;0.47;0.20;;;;;;;14.39;100.00;98641.44;1731966;81;21066;-63
2022/07/13 07:33:57;;;;;;;1.95;0.30;;;;;;;14.40;100.00;98640.33;1719527;82;21111;-63
2022/07/13 07:36:23;;;;;;;0.30;0.20;;;;;;;14.41;100.00;98644.68;1712395;82;21039;-60
2022/07/13 07:38:50;;;;;;;0.72;0.30;;;;;;;14.45;100.00;98640.73;1718352;81;21541;-61
2022/07/13 07:41:17;;;;;;;0.85;0.20;;;;;;;14.47;100.00;98644.50;1716780;81;21039;-62
2022/07/13 07:43:43;;;;;;;1.47;0.20;;;;;;;14.45;100.00;98649.72;1715444;82;21162;-62
2022/07/13 07:46:10;;;;;;;1.02;0.20;;;;;;;14.47;100.00;98656.82;1717522;82;21051;-62
2022/07/13 07:48:36;;;;;;;2.12;0.20;;;;;;;14.47;100.00;98662.30;1707202;82;21383;-62
2022/07/13 07:51:04;;;;;;;0.78;0.30;;;;;;;14.47;100.00;98665.84;1729197;81;21027;-62
2022/07/13 07:53:30;;;;;;;0.40;0.20;;;;;;;14.49;100.00;98667.68;1717141;82;21638;-62
2022/07/13 07:55:57;;;;;;;;;;;;;;;14.48;100.00;98669.39;1718119;82;21538;-61
2022/07/13 07:58:23;;;;;;;1.37;0.20;;;;;;;14.50;100.00;98676.15;1713570;82;20109;-60
2022/07/13 08:00:50;;;;;;;0.35;0.20;;;;;;;14.47;100.00;98671.31;1741774;81;21574;-62
2022/07/13 08:03:16;;;;;;;1.35;0.33;;;;;;;14.46;100.00;98665.59;1721298;82;21055;-62
2022/07/13 08:05:48;;;;;;;0.42;0.20;;;;;;;14.50;100.00;98665.75;1727559;82;20968;-62
2022/07/13 08:08:11;;;;;;;0.42;0.20;;;;;;;14.56;100.00;98668.59;1723769;82;21550;-62
2022/07/13 08:10:39;;;;;;;0.60;0.30;;;;;;;14.59;100.00;98660.53;1730716;81;20999;-62
2022/07/13 08:13:05;;;;;;;;;;;;;;;14.62;100.00;98665.36;1738113;81;21004;-62
2022/07/13 08:15:33;;;;;;;0.30;0.20;;;;;;;14.60;100.00;98659.94;1724626;80;20135;-61
2022/07/13 08:17:59;;;;;;;0.35;0.20;;;;;;;14.54;100.00;98670.27;1731522;82;21025;-61
2022/07/13 08:20:26;;;;;;;0.60;0.20;;;;;;;14.54;100.00;98679.85;1724703;82;21073;-62
2022/07/13 08:22:53;;;;;;;0.37;0.20;;;;;;;14.56;100.00;98668.59;1731426;81;21047;-62
2022/07/13 08:25:20;;;;;;;2.45;0.20;;;;;;;14.58;100.00;98663.58;1736193;81;21079;-62
2022/07/13 08:27:46;;;;;;;0.40;0.20;;;;;;;14.60;100.00;98678.55;1735033;80;20991;-62
2022/07/13 08:30:13;;;;;;;0.75;0.20;;;;;;;14.62;100.00;98669.47;1734962;82;21074;-62
2022/07/13 08:32:41;;;;;;;0.28;0.10;;;;;;;14.67;100.00;98674.77;1734950;80;21039;-62
2022/07/13 08:40:41;;;;;;;0.68;0.20;;;;;;;14.79;100.00;98665.89;1716988;82;21078;-62
2022/07/13 08:43:07;;;;;;;1.45;0.20;;;;;;;14.86;100.00;98666.20;1717164;82;21077;-61
2022/07/13 08:45:35;;;;;;;1.87;0.20;;;;;;;14.93;100.00;98664.58;1745887;80;21054;-61
2022/07/13 08:48:06;;;;;;;0.72;0.20;;;;;;;15.03;100.00;98666.16;1736126;82;21508;-61
2022/07/13 08:50:33;;;;;;;0.75;0.20;;;;;;;15.13;100.00;98664.99;1735193;82;21077;-61
2022/07/13 08:53:00;;;;;;;0.40;0.10;;;;;;;15.22;100.00;98675.38;1725450;80;21562;-62
2022/07/13 08:55:26;;;;;;;0.55;0.20;;;;;;;15.33;100.00;98674.70;1732447;80;21019;-62
2022/07/13 08:57:53;;;;;;;0.30;0.10;;;;;;;15.40;100.00;98671.45;1741775;80;21584;-62
2022/07/13 09:00:21;;;;;;;0.82;0.20;;;;;;;15.47;100.00;98681.91;1727083;82;21989;-61
2022/07/13 09:02:49;;;;;;;0.70;0.17;;;;;;;15.50;100.00;98678.53;1728823;82;21030;-62
2022/07/13 09:05:17;;;;;;;0.85;0.30;;;;;;;15.54;100.00;98680.86;1760687;80;21068;-62
2022/07/13 09:07:44;;;;;;;0.53;0.20;;;;;;;15.58;100.00;98674.39;1722917;80;21047;-62
2022/07/13 09:10:10;;;;;;;;;;;;;;;15.56;100.00;98669.78;1692317;83;21051;-62
2022/07/13 09:12:37;;;;;;;0.37;0.20;;;;;;;15.57;100.00;98669.22;1730013;82;20099;-63
2022/07/13 09:15:06;;;;;;;0.60;0.20;;;;;;;15.57;100.00;98669.22;1719615;82;21116;-62
2022/07/13 09:17:38;;;;;;;1.07;0.20;;;;;;;15.61;100.00;98664.69;1732326;80;20999;-61
2022/07/13 09:20:17;;;;;;;3.25;0.20;;;;;;;15.66;100.00;98661.77;1741206;80;21058;-62
2022/07/13 09:22:58;;;;;;;0.68;0.20;;;;;;;15.74;100.00;98658.96;1724826;82;20971;-62
2022/07/13 09:25:32;;;;;;;0.82;0.20;;;;;;;15.84;100.00;98647.59;1722730;80;20990;-62
2022/07/13 09:28:08;;;;;;;0.68;0.23;;;;;;;15.93;100.00;98646.19;1708316;83;21038;-63
2022/07/13 09:30:38;;;;;;;0.37;0.20;;;;;;;16.00;100.00;98647.83;1713225;83;21054;-62
2022/07/13 09:33:05;;;;;;;2.35;0.28;;;;;;;16.01;100.00;98667.29;1708550;84;20996;-62
2022/07/13 09:35:51;;;;;;;2.55;0.40;;;;;;;15.96;100.00;98663.36;1684993;84;21502;-63
2022/07/13 09:38:39;;;;;;;0.17;0.10;;;;;;;15.96;100.00;98673.52;1709549;84;21067;-63
2022/07/13 09:41:20;;;;;;;2.40;0.20;;;;;;;15.92;100.00;98665.16;1705314;83;21051;-63
2022/07/13 09:47:00;;;;;;;1.15;0.20;;;;;;;15.88;100.00;98664.20;1697848;84;21121;-63
2022/07/13 09:49:44;;;;;;;0.62;0.20;;;;;;;15.86;100.00;98670.05;1705552;82;21087;-62
2022/07/13 09:52:18;;;;;;;0.88;0.20;;;;;;;15.85;100.00;98671.73;1706333;83;21026;-61
2022/07/13 09:54:51;;;;;;;0.93;0.20;;;;;;;15.86;100.00;98671.98;1705832;82;21122;-62
2022/07/13 09:57:21;;;;;;;1.15;0.20;;;;;;;15.85;100.00;98667.62;1702426;84;21557;-62
2022/07/13 09:59:49;;;;;;;0.57;0.20;;;;;;;15.88;100.00;98666.95;1698405;83;21080;-61
2022/07/13 10:02:15;;;;;;;1.02;0.30;;;;;;;15.92;100.00;98657.73;1703468;83;21530;-61
2022/07/13 10:04:42;;;;;;;0.60;0.20;;;;;;;15.98;100.00;98651.46;1700792;82;21142;-62
2022/07/13 10:07:09;;;;;;;1.77;0.20;;;;;;;16.05;100.00;98644.87;1696019;84;21534;-62
2022/07/13 10:09:37;;;;;;;1.40;0.40;;;;;;;16.09;100.00;98642.27;1699680;82;21175;-62
2022/07/13 10:12:06;;;;;;;0.42;0.30;;;;;;;16.13;100.00;98637.72;1704272;83;21026;-61
2022/07/13 10:14:34;;;;;;;1.57;0.28;;;;;;;16.17;100.00;98627.67;1696314;83;21027;-61
2022/07/13 10:17:00;;;;;;;;;;;;;;;16.19;100.00;98634.44;1691689;84;21537;-60
2022/07/13 10:19:27;;;;;;;0.53;0.20;;;;;;;16.20;100.00;98636.05;1700614;84;20104;-63
2022/07/13 10:22:12;;;;;;;0.28;0.20;;;;;;;16.15;100.00;98630.78;1705365;83;21055;-62
2022/07/13 10:24:41;;;;;;;0.60;0.20;;;;;;;16.16;100.00;98635.11;1706797;83;21558;-60
2022/07/13 10:27:30;;;;;;;1.62;0.30;;;;;;;16.18;100.00;98633.41;1727843;80;21688;-61
2022/07/13 10:30:12;;;;;;;0.93;0.20;;;;;;;16.18;100.00;98636.97;1713971;82;21061;-61
2022/07/13 10:32:41;;;;;;;1.00;0.30;;;;;;;16.17;100.00;98635.91;1731813;80;21031;-61
2022/07/13 10:35:13;;;;;;;0.68;0.30;;;;;;;16.16;100.00;98636.48;1744741;82;21054;-62
2022/07/13 10:38:02;;;;;;;1.10;0.30;;;;;;;16.20;100.00;98644.28;1737434;81;21576;-60
2022/07/13 10:40:32;;;;;;;0.40;0.20;;;;;;;16.20;100.00;98635.23;1748563;80;21043;-62
2022/07/13 10:43:04;;;;;;;1.52;0.20;;;;;;;16.19;100.00;98646.02;1674272;83;21047;-62
2022/07/13 10:45:38;;;;;;;2.08;0.20;;;;;;;16.18;100.00;98639.71;1699463;84;20980;-62
2022/07/13 10:48:11;;;;;;;2.25;0.30;;;;;;;16.14;100.00;98639.33;1672741;84;21007;-62
2022/07/13 10:50:51;;;;;;;0.68;0.20;;;;;;;16.13;100.00;98639.90;1682796;83;20967;-62
2022/07/13 10:53:19;;;;;;;0.45;0.20;;;;;;;16.16;100.00;98647.46;1734123;81;21031;-62
2022/07/13 10:55:49;;;;;;;0.85;0.20;;;;;;;16.21;100.00;98639.03;1731414;82;21455;-60
2022/07/13 10:58:42;;;;;;;0.40;0.20;;;;;;;16.27;100.00;98638.25;1735940;81;21488;-61
2022/07/13 11:01:43;;;;;;;1.30;0.30;;;;;;;16.32;100.00;98642.99;1727016;82;21079;-61
2022/07/13 11:04:11;;;;;;;0.37;0.20;;;;;;;16.39;100.00;98647.94;1731351;82;21023;-62
2022/07/13 11:06:39;;;;;;;0.47;0.20;;;;;;;16.37;100.00;98641.39;1733373;82;21605;-61
2022/07/13 11:09:14;;;;;;;0.78;0.20;;;;;;;16.33;100.00;98649.30;1735222;81;21463;-62
2022/07/13 11:11:52;;;;;;;0.30;0.20;;;;;;;16.30;100.00;98640.33;1720597;82;21115;-62
2022/07/13 11:14:46;;;;;;;1.45;0.30;;;;;;;16.28;100.00;98639.30;1682398;84;21558;-62
2022/07/13 11:17:23;;;;;;;0.70;0.20;;;;;;;16.28;100.00;98639.30;1687920;84;21570;-62
2022/07/13 11:20:07;;;;;;;0.50;0.20;;;;;;;16.30;100.00;98635.64;1689393;84;21129;-61
2022/07/13 11:25:13;;;;;;;0.23;0.20;;;;;;;16.32;100.00;98634.75;1699663;84;21019;-61
2022/07/13 11:25:26;;;;;;;0.88;0.10;;;;;;;16.36;100.00;98639.81;1683911;84;21046;-61
2022/07/13 11:28:15;;;;;;;0.93;0.23;;;;;;;16.39;100.00;98641.07;1681195;84;21097;-60
2022/07/13 11:30:44;;;;;;;1.07;0.20;;;;;;;16.39;100.00;98636.39;1697916;84;20999;-60
2022/07/13 11:33:11;;;;;;;0.50;0.20;;;;;;;16.42;100.00;98643.95;1689738;84;21561;-61
2022/07/13 11:35:44;;;;;;;1.20;0.30;;;;;;;16.48;100.00;98642.36;1682220;84;21038;-61
2022/07/13 11:38:12;;;;;;;1.75;0.20;;;;;;;16.45;100.00;98643.84;1680154;84;21016;-62
2022/07/13 11:40:38;;;;;;;0.20;0.10;;;;;;;16.42;100.00;98643.95;1679495;84;21083;-62
2022/07/13 11:43:05;;;;;;;1.10;0.28;;;;;;;16.41;100.00;98647.02;1665519;84;21035;-60
2022/07/13 11:45:32;;;;;;;0.78;0.20;;;;;;;16.39;100.00;98646.00;1658555;84;21035;-60